Terminal Aerodrome Forecast
Issued by NWS Mt. Holly, NJ

Home | Current Version | Previous Version | Text Only | Print | Product List | Glossary On
Versions: 1 2 3 4 5 6 7 8 9 10 11 12 13 14 15 16 17 18 19 20 21 22 23 24 25
000
FTUS41 KPHI 220300 AAA
TAFPHL
TAF AMD
KPHL 220345Z 2204/2306 VRB03KT P6SM SCT250
     FM220600 VRB03KT P6SM BKN025
     FM221300 04004KT P6SM BKN250
     FM221700 08005KT P6SM BKN050
      TEMPO 2217/2220 5SM -RASN
     FM222000 07004KT P6SM BKN025
      TEMPO 2221/2224 5SM -RA
     FM230000 07004KT P6SM -RA BKN025
     FM230300 06004KT 3SM -RA BR BKN010=

USA.gov is the U.S. government's official web portal to all federal, state and local government web resources and services.